sensor_id;sensor_type;location;lat;lon;timestamp;temperature;humidity
31542;DHT22;18152;49.986;8.646;2022-07-22T00:02:16;17.20;99.90
31542;DHT22;18152;49.986;8.646;2022-07-22T00:04:41;17.20;99.90
31542;DHT22;18152;49.986;8.646;2022-07-22T00:07:07;17.20;99.90
31542;DHT22;18152;49.986;8.646;2022-07-22T00:09:33;17.30;99.90
31542;DHT22;18152;49.986;8.646;2022-07-22T00:11:59;17.30;99.90
31542;DHT22;18152;49.986;8.646;2022-07-22T00:14:25;17.20;99.90
31542;DHT22;18152;49.986;8.646;2022-07-22T00:16:50;17.20;99.90
31542;DHT22;18152;49.986;8.646;2022-07-22T00:19:16;17.20;99.90
31542;DHT22;18152;49.986;8.646;2022-07-22T00:21:41;17.30;99.90
31542;DHT22;18152;49.986;8.646;2022-07-22T00:24:07;17.20;99.90
31542;DHT22;18152;49.986;8.646;2022-07-22T00:26:33;17.20;99.90
31542;DHT22;18152;49.986;8.646;2022-07-22T00:28:58;17.10;99.90
31542;DHT22;18152;49.986;8.646;2022-07-22T00:31:24;17.10;99.90
31542;DHT22;18152;49.986;8.646;2022-07-22T00:33:50;17.00;99.90
31542;DHT22;18152;49.986;8.646;2022-07-22T00:36:15;17.10;99.90
31542;DHT22;18152;49.986;8.646;2022-07-22T00:38:41;17.10;99.90
31542;DHT22;18152;49.986;8.646;2022-07-22T00:41:07;17.00;99.90
31542;DHT22;18152;49.986;8.646;2022-07-22T00:43:52;17.00;99.90
31542;DHT22;18152;49.986;8.646;2022-07-22T00:46:18;17.00;99.90
31542;DHT22;18152;49.986;8.646;2022-07-22T00:48:44;17.00;99.90
31542;DHT22;18152;49.986;8.646;2022-07-22T00:51:10;17.00;99.90
31542;DHT22;18152;49.986;8.646;2022-07-22T00:53:35;16.90;99.90
31542;DHT22;18152;49.986;8.646;2022-07-22T00:56:02;16.90;99.90
31542;DHT22;18152;49.986;8.646;2022-07-22T00:58:29;16.90;99.90
31542;DHT22;18152;49.986;8.646;2022-07-22T01:00:55;16.90;99.90
31542;DHT22;18152;49.986;8.646;2022-07-22T01:03:20;16.90;99.90
31542;DHT22;18152;49.986;8.646;2022-07-22T01:05:46;16.80;99.90
31542;DHT22;18152;49.986;8.646;2022-07-22T01:08:11;16.80;99.90
31542;DHT22;18152;49.986;8.646;2022-07-22T01:10:37;16.80;99.90
31542;DHT22;18152;49.986;8.646;2022-07-22T01:13:03;16.70;99.90
31542;DHT22;18152;49.986;8.646;2022-07-22T01:15:28;16.80;99.90
31542;DHT22;18152;49.986;8.646;2022-07-22T01:17:54;16.80;99.90
31542;DHT22;18152;49.986;8.646;2022-07-22T01:20:19;16.70;99.90
31542;DHT22;18152;49.986;8.646;2022-07-22T01:22:45;16.60;99.90
31542;DHT22;18152;49.986;8.646;2022-07-22T01:25:12;16.60;99.90
31542;DHT22;18152;49.986;8.646;2022-07-22T01:27:38;16.60;99.90
31542;DHT22;18152;49.986;8.646;2022-07-22T01:30:07;16.60;99.90
31542;DHT22;18152;49.986;8.646;2022-07-22T01:32:33;16.60;99.90
31542;DHT22;18152;49.986;8.646;2022-07-22T01:34:58;16.60;99.90
31542;DHT22;18152;49.986;8.646;2022-07-22T01:37:24;16.60;99.90
31542;DHT22;18152;49.986;8.646;2022-07-22T01:39:50;16.60;99.90
31542;DHT22;18152;49.986;8.646;2022-07-22T01:42:16;16.50;99.90
31542;DHT22;18152;49.986;8.646;2022-07-22T01:44:41;16.40;99.90
31542;DHT22;18152;49.986;8.646;2022-07-22T01:47:08;16.40;99.90
31542;DHT22;18152;49.986;8.646;2022-07-22T01:49:34;16.40;99.90
31542;DHT22;18152;49.986;8.646;2022-07-22T01:52:01;16.30;99.90
31542;DHT22;18152;49.986;8.646;2022-07-22T01:54:26;16.30;99.90
31542;DHT22;18152;49.986;8.646;2022-07-22T01:56:52;16.30;99.90
31542;DHT22;18152;49.986;8.646;2022-07-22T01:59:18;16.30;99.90
31542;DHT22;18152;49.986;8.646;2022-07-22T02:01:43;16.20;99.90
31542;DHT22;18152;49.986;8.646;2022-07-22T02:04:09;16.20;99.90
31542;DHT22;18152;49.986;8.646;2022-07-22T02:06:34;16.10;99.90
31542;DHT22;18152;49.986;8.646;2022-07-22T02:09:00;16.10;99.90
31542;DHT22;18152;49.986;8.646;2022-07-22T02:11:25;16.10;99.90
31542;DHT22;18152;49.986;8.646;2022-07-22T02:13:51;16.00;99.90
31542;DHT22;18152;49.986;8.646;2022-07-22T02:16:17;16.10;99.90
31542;DHT22;18152;49.986;8.646;2022-07-22T02:18:42;16.00;99.90
31542;DHT22;18152;49.986;8.646;2022-07-22T02:21:08;16.00;99.90
31542;DHT22;18152;49.986;8.646;2022-07-22T02:23:33;16.00;99.90
31542;DHT22;18152;49.986;8.646;2022-07-22T02:25:59;15.80;99.90
31542;DHT22;18152;49.986;8.646;2022-07-22T02:28:24;15.80;99.90
31542;DHT22;18152;49.986;8.646;2022-07-22T02:30:50;15.90;99.90
31542;DHT22;18152;49.986;8.646;2022-07-22T02:33:16;15.80;99.90
31542;DHT22;18152;49.986;8.646;2022-07-22T02:35:41;15.80;99.90
31542;DHT22;18152;49.986;8.646;2022-07-22T02:38:07;15.70;99.90
31542;DHT22;18152;49.986;8.646;2022-07-22T02:40:32;15.80;99.90
31542;DHT22;18152;49.986;8.646;2022-07-22T02:42:58;15.70;99.90
31542;DHT22;18152;49.986;8.646;2022-07-22T02:45:24;15.70;99.90
31542;DHT22;18152;49.986;8.646;2022-07-22T02:47:53;15.60;99.90
31542;DHT22;18152;49.986;8.646;2022-07-22T02:50:19;15.60;99.90
31542;DHT22;18152;49.986;8.646;2022-07-22T02:52:44;15.60;99.90
31542;DHT22;18152;49.986;8.646;2022-07-22T02:55:10;15.60;99.90
31542;DHT22;18152;49.986;8.646;2022-07-22T02:57:35;15.60;99.90
31542;DHT22;18152;49.986;8.646;2022-07-22T03:00:03;15.50;99.90
31542;DHT22;18152;49.986;8.646;2022-07-22T03:02:29;15.50;99.90
31542;DHT22;18152;49.986;8.646;2022-07-22T03:04:54;15.50;99.90
31542;DHT22;18152;49.986;8.646;2022-07-22T03:07:20;15.50;99.90
31542;DHT22;18152;49.986;8.646;2022-07-22T03:09:45;15.50;99.90
31542;DHT22;18152;49.986;8.646;2022-07-22T03:12:11;15.50;99.90
31542;DHT22;18152;49.986;8.646;2022-07-22T03:14:36;15.50;99.90
31542;DHT22;18152;49.986;8.646;2022-07-22T03:17:02;15.50;99.90
31542;DHT22;18152;49.986;8.646;2022-07-22T03:19:28;15.50;99.90
31542;DHT22;18152;49.986;8.646;2022-07-22T03:21:53;15.50;99.90
31542;DHT22;18152;49.986;8.646;2022-07-22T03:24:19;15.40;99.90
31542;DHT22;18152;49.986;8.646;2022-07-22T03:26:44;15.40;99.90
31542;DHT22;18152;49.986;8.646;2022-07-22T03:29:10;15.50;99.90
31542;DHT22;18152;49.986;8.646;2022-07-22T03:31:36;15.50;99.90
31542;DHT22;18152;49.986;8.646;2022-07-22T03:34:01;15.50;99.90
31542;DHT22;18152;49.986;8.646;2022-07-22T03:36:28;15.50;99.90
31542;DHT22;18152;49.986;8.646;2022-07-22T03:38:55;15.60;99.90
31542;DHT22;18152;49.986;8.646;2022-07-22T03:41:20;15.70;99.90
31542;DHT22;18152;49.986;8.646;2022-07-22T03:43:47;15.70;99.90
31542;DHT22;18152;49.986;8.646;2022-07-22T03:46:13;15.70;99.90
31542;DHT22;18152;49.986;8.646;2022-07-22T03:48:38;15.80;99.90
31542;DHT22;18152;49.986;8.646;2022-07-22T03:51:04;15.80;99.90
31542;DHT22;18152;49.986;8.646;2022-07-22T03:53:30;15.90;99.90
31542;DHT22;18152;49.986;8.646;2022-07-22T03:55:56;15.90;99.90
31542;DHT22;18152;49.986;8.646;2022-07-22T03:58:21;15.90;99.90
31542;DHT22;18152;49.986;8.646;2022-07-22T04:00:47;15.90;99.90
31542;DHT22;18152;49.986;8.646;2022-07-22T04:03:12;16.00;99.90
31542;DHT22;18152;49.986;8.646;2022-07-22T04:05:38;16.00;99.90
31542;DHT22;18152;49.986;8.646;2022-07-22T04:08:04;16.00;99.90
31542;DHT22;18152;49.986;8.646;2022-07-22T04:10:29;15.90;99.90
31542;DHT22;18152;49.986;8.646;2022-07-22T04:12:55;15.90;99.90
31542;DHT22;18152;49.986;8.646;2022-07-22T04:15:21;16.00;99.90
31542;DHT22;18152;49.986;8.646;2022-07-22T04:17:46;16.00;99.90
31542;DHT22;18152;49.986;8.646;2022-07-22T04:20:12;16.00;99.90
31542;DHT22;18152;49.986;8.646;2022-07-22T04:22:37;16.00;99.90
31542;DHT22;18152;49.986;8.646;2022-07-22T04:25:03;16.00;99.90
31542;DHT22;18152;49.986;8.646;2022-07-22T04:27:29;16.00;99.90
31542;DHT22;18152;49.986;8.646;2022-07-22T04:29:55;16.10;99.90
31542;DHT22;18152;49.986;8.646;2022-07-22T04:32:20;16.10;99.90
31542;DHT22;18152;49.986;8.646;2022-07-22T04:34:46;16.10;99.90
31542;DHT22;18152;49.986;8.646;2022-07-22T04:37:11;16.20;99.90
31542;DHT22;18152;49.986;8.646;2022-07-22T04:39:37;16.20;99.90
31542;DHT22;18152;49.986;8.646;2022-07-22T04:42:03;16.20;99.90
31542;DHT22;18152;49.986;8.646;2022-07-22T04:44:28;16.30;99.90
31542;DHT22;18152;49.986;8.646;2022-07-22T04:46:54;16.30;99.90
31542;DHT22;18152;49.986;8.646;2022-07-22T04:49:20;16.40;99.90
31542;DHT22;18152;49.986;8.646;2022-07-22T04:51:45;16.40;99.90
31542;DHT22;18152;49.986;8.646;2022-07-22T04:54:11;16.50;99.90
31542;DHT22;18152;49.986;8.646;2022-07-22T04:56:36;16.50;99.90
31542;DHT22;18152;49.986;8.646;2022-07-22T04:59:02;16.60;99.90
31542;DHT22;18152;49.986;8.646;2022-07-22T05:01:28;16.60;99.90
31542;DHT22;18152;49.986;8.646;2022-07-22T05:03:53;16.70;99.90
31542;DHT22;18152;49.986;8.646;2022-07-22T05:06:19;16.70;99.90
31542;DHT22;18152;49.986;8.646;2022-07-22T05:08:44;16.80;99.90
31542;DHT22;18152;49.986;8.646;2022-07-22T05:11:10;16.80;99.90
31542;DHT22;18152;49.986;8.646;2022-07-22T05:13:36;16.80;99.90
31542;DHT22;18152;49.986;8.646;2022-07-22T05:16:05;16.90;99.90
31542;DHT22;18152;49.986;8.646;2022-07-22T05:18:31;16.90;99.90
31542;DHT22;18152;49.986;8.646;2022-07-22T05:20:56;16.90;99.90
31542;DHT22;18152;49.986;8.646;2022-07-22T05:23:22;16.90;99.90
31542;DHT22;18152;49.986;8.646;2022-07-22T05:25:47;17.00;99.90
31542;DHT22;18152;49.986;8.646;2022-07-22T05:28:13;17.00;99.90
31542;DHT22;18152;49.986;8.646;2022-07-22T05:30:39;17.10;99.90
31542;DHT22;18152;49.986;8.646;2022-07-22T05:33:04;17.10;99.90
31542;DHT22;18152;49.986;8.646;2022-07-22T05:35:30;17.20;99.90
31542;DHT22;18152;49.986;8.646;2022-07-22T05:37:55;17.20;99.90
31542;DHT22;18152;49.986;8.646;2022-07-22T05:40:21;17.30;99.90
31542;DHT22;18152;49.986;8.646;2022-07-22T05:42:47;17.30;99.90
31542;DHT22;18152;49.986;8.646;2022-07-22T05:45:13;17.30;99.90
31542;DHT22;18152;49.986;8.646;2022-07-22T05:47:38;17.40;99.90
31542;DHT22;18152;49.986;8.646;2022-07-22T05:50:04;17.50;99.90
31542;DHT22;18152;49.986;8.646;2022-07-22T05:52:30;17.60;99.90
31542;DHT22;18152;49.986;8.646;2022-07-22T05:54:58;17.80;99.90
31542;DHT22;18152;49.986;8.646;2022-07-22T05:57:24;17.90;99.90
31542;DHT22;18152;49.986;8.646;2022-07-22T05:59:49;18.00;99.90
31542;DHT22;18152;49.986;8.646;2022-07-22T06:02:15;18.10;99.90
31542;DHT22;18152;49.986;8.646;2022-07-22T06:04:41;18.10;99.90
31542;DHT22;18152;49.986;8.646;2022-07-22T06:07:06;18.20;99.90
31542;DHT22;18152;49.986;8.646;2022-07-22T06:09:32;18.20;99.90
31542;DHT22;18152;49.986;8.646;2022-07-22T06:11:58;18.40;99.90
31542;DHT22;18152;49.986;8.646;2022-07-22T06:14:24;18.50;99.90
31542;DHT22;18152;49.986;8.646;2022-07-22T06:16:49;18.60;99.90
31542;DHT22;18152;49.986;8.646;2022-07-22T06:19:15;18.60;99.90
31542;DHT22;18152;49.986;8.646;2022-07-22T06:21:40;18.60;99.90
31542;DHT22;18152;49.986;8.646;2022-07-22T06:24:06;18.80;99.90
31542;DHT22;18152;49.986;8.646;2022-07-22T06:26:32;18.80;99.90
31542;DHT22;18152;49.986;8.646;2022-07-22T06:28:57;18.80;99.90
31542;DHT22;18152;49.986;8.646;2022-07-22T06:31:23;18.70;99.90
31542;DHT22;18152;49.986;8.646;2022-07-22T06:33:48;18.70;99.90
31542;DHT22;18152;49.986;8.646;2022-07-22T06:36:14;18.60;99.90
31542;DHT22;18152;49.986;8.646;2022-07-22T06:38:40;18.70;99.90
31542;DHT22;18152;49.986;8.646;2022-07-22T06:41:06;18.70;99.90
31542;DHT22;18152;49.986;8.646;2022-07-22T06:43:31;18.70;99.90
31542;DHT22;18152;49.986;8.646;2022-07-22T06:45:57;18.80;99.90
31542;DHT22;18152;49.986;8.646;2022-07-22T06:48:22;18.80;99.90
31542;DHT22;18152;49.986;8.646;2022-07-22T06:50:48;19.10;99.90
31542;DHT22;18152;49.986;8.646;2022-07-22T06:53:14;19.30;99.90
31542;DHT22;18152;49.986;8.646;2022-07-22T06:55:39;19.40;99.90
31542;DHT22;18152;49.986;8.646;2022-07-22T06:58:05;19.50;99.90
31542;DHT22;18152;49.986;8.646;2022-07-22T07:00:31;19.80;99.90
31542;DHT22;18152;49.986;8.646;2022-07-22T07:03:01;20.00;99.90
31542;DHT22;18152;49.986;8.646;2022-07-22T07:05:27;20.30;99.90
31542;DHT22;18152;49.986;8.646;2022-07-22T07:07:54;20.40;99.90
31542;DHT22;18152;49.986;8.646;2022-07-22T07:10:20;20.50;99.90
31542;DHT22;18152;49.986;8.646;2022-07-22T07:12:46;20.60;99.90
31542;DHT22;18152;49.986;8.646;2022-07-22T07:15:12;20.30;99.90
31542;DHT22;18152;49.986;8.646;2022-07-22T07:17:37;20.30;99.90
31542;DHT22;18152;49.986;8.646;2022-07-22T07:20:04;20.40;99.90
31542;DHT22;18152;49.986;8.646;2022-07-22T07:22:31;20.60;99.90
31542;DHT22;18152;49.986;8.646;2022-07-22T07:24:57;20.80;99.90
31542;DHT22;18152;49.986;8.646;2022-07-22T07:27:26;20.90;99.90
31542;DHT22;18152;49.986;8.646;2022-07-22T07:29:52;21.00;99.90
31542;DHT22;18152;49.986;8.646;2022-07-22T07:32:17;20.70;99.90
31542;DHT22;18152;49.986;8.646;2022-07-22T07:34:43;20.20;99.90
31542;DHT22;18152;49.986;8.646;2022-07-22T07:37:09;20.00;99.90
31542;DHT22;18152;49.986;8.646;2022-07-22T07:39:34;19.90;99.90
31542;DHT22;18152;49.986;8.646;2022-07-22T07:42:00;20.20;99.90
31542;DHT22;18152;49.986;8.646;2022-07-22T07:44:26;20.60;99.90
31542;DHT22;18152;49.986;8.646;2022-07-22T07:46:51;21.20;99.90
31542;DHT22;18152;49.986;8.646;2022-07-22T07:49:17;21.40;99.90
31542;DHT22;18152;49.986;8.646;2022-07-22T07:51:43;21.80;99.90
31542;DHT22;18152;49.986;8.646;2022-07-22T07:54:08;22.30;99.90
31542;DHT22;18152;49.986;8.646;2022-07-22T07:56:34;22.60;99.90
31542;DHT22;18152;49.986;8.646;2022-07-22T07:58:59;22.50;99.90
31542;DHT22;18152;49.986;8.646;2022-07-22T08:01:25;22.10;99.90
31542;DHT22;18152;49.986;8.646;2022-07-22T08:03:50;22.30;99.90
31542;DHT22;18152;49.986;8.646;2022-07-22T08:06:16;22.60;99.90
31542;DHT22;18152;49.986;8.646;2022-07-22T08:08:41;22.40;99.90
31542;DHT22;18152;49.986;8.646;2022-07-22T08:11:07;22.40;99.90
31542;DHT22;18152;49.986;8.646;2022-07-22T08:13:33;22.50;99.90
31542;DHT22;18152;49.986;8.646;2022-07-22T08:15:59;22.70;99.90
31542;DHT22;18152;49.986;8.646;2022-07-22T08:18:25;23.10;99.90
31542;DHT22;18152;49.986;8.646;2022-07-22T08:20:51;23.20;99.90
31542;DHT22;18152;49.986;8.646;2022-07-22T08:23:17;23.30;99.90
31542;DHT22;18152;49.986;8.646;2022-07-22T08:25:42;23.60;99.90
31542;DHT22;18152;49.986;8.646;2022-07-22T08:28:08;23.30;99.90
31542;DHT22;18152;49.986;8.646;2022-07-22T08:30:34;23.80;99.90
31542;DHT22;18152;49.986;8.646;2022-07-22T08:33:00;24.10;99.90
31542;DHT22;18152;49.986;8.646;2022-07-22T08:35:26;24.30;99.90
31542;DHT22;18152;49.986;8.646;2022-07-22T08:37:51;24.40;99.90
31542;DHT22;18152;49.986;8.646;2022-07-22T08:40:18;24.40;99.90
31542;DHT22;18152;49.986;8.646;2022-07-22T08:42:45;24.60;99.90
31542;DHT22;18152;49.986;8.646;2022-07-22T08:45:11;24.40;99.90
31542;DHT22;18152;49.986;8.646;2022-07-22T08:47:38;24.60;99.90
31542;DHT22;18152;49.986;8.646;2022-07-22T08:50:04;24.40;99.90
31542;DHT22;18152;49.986;8.646;2022-07-22T08:52:30;24.60;99.90
31542;DHT22;18152;49.986;8.646;2022-07-22T08:54:55;24.70;99.90
31542;DHT22;18152;49.986;8.646;2022-07-22T08:57:21;24.70;99.90
31542;DHT22;18152;49.986;8.646;2022-07-22T08:59:55;24.60;98.20
31542;DHT22;18152;49.986;8.646;2022-07-22T09:02:22;24.40;99.90
31542;DHT22;18152;49.986;8.646;2022-07-22T09:05:00;24.60;99.90
31542;DHT22;18152;49.986;8.646;2022-07-22T09:07:33;24.70;99.90
31542;DHT22;18152;49.986;8.646;2022-07-22T09:10:08;24.80;99.90
31542;DHT22;18152;49.986;8.646;2022-07-22T09:12:34;24.50;99.60
31542;DHT22;18152;49.986;8.646;2022-07-22T09:15:01;24.20;99.90
31542;DHT22;18152;49.986;8.646;2022-07-22T09:17:35;24.20;99.70
31542;DHT22;18152;49.986;8.646;2022-07-22T09:20:03;24.30;99.90
31542;DHT22;18152;49.986;8.646;2022-07-22T09:22:42;24.70;99.90
31542;DHT22;18152;49.986;8.646;2022-07-22T09:25:29;25.00;99.90
31542;DHT22;18152;49.986;8.646;2022-07-22T09:28:16;25.30;99.90
31542;DHT22;18152;49.986;8.646;2022-07-22T09:30:47;25.50;99.90
31542;DHT22;18152;49.986;8.646;2022-07-22T09:33:14;25.60;96.50
31542;DHT22;18152;49.986;8.646;2022-07-22T09:35:40;25.50;99.90
31542;DHT22;18152;49.986;8.646;2022-07-22T09:38:08;25.80;99.90
31542;DHT22;18152;49.986;8.646;2022-07-22T09:40:39;25.90;96.60
31542;DHT22;18152;49.986;8.646;2022-07-22T09:43:11;26.10;94.70
31542;DHT22;18152;49.986;8.646;2022-07-22T09:48:10;26.20;98.10
31542;DHT22;18152;49.986;8.646;2022-07-22T09:50:36;26.30;99.20
31542;DHT22;18152;49.986;8.646;2022-07-22T09:53:02;26.40;97.80
31542;DHT22;18152;49.986;8.646;2022-07-22T09:55:28;26.40;94.50
31542;DHT22;18152;49.986;8.646;2022-07-22T09:57:55;26.40;92.80
31542;DHT22;18152;49.986;8.646;2022-07-22T10:00:24;26.30;95.30
31542;DHT22;18152;49.986;8.646;2022-07-22T10:02:58;26.20;92.00
31542;DHT22;18152;49.986;8.646;2022-07-22T10:05:26;26.40;99.90
31542;DHT22;18152;49.986;8.646;2022-07-22T10:07:53;26.60;97.00
31542;DHT22;18152;49.986;8.646;2022-07-22T10:10:21;26.80;96.60
31542;DHT22;18152;49.986;8.646;2022-07-22T10:12:52;26.60;94.70
31542;DHT22;18152;49.986;8.646;2022-07-22T10:15:19;26.30;95.20
31542;DHT22;18152;49.986;8.646;2022-07-22T10:17:54;26.20;95.30
31542;DHT22;18152;49.986;8.646;2022-07-22T10:20:23;26.70;94.90
31542;DHT22;18152;49.986;8.646;2022-07-22T10:25:21;27.10;98.60
31542;DHT22;18152;49.986;8.646;2022-07-22T10:27:54;27.00;96.90
31542;DHT22;18152;49.986;8.646;2022-07-22T10:33:16;27.00;95.00
31542;DHT22;18152;49.986;8.646;2022-07-22T10:38:23;27.40;81.60
31542;DHT22;18152;49.986;8.646;2022-07-22T10:43:22;27.10;93.50
31542;DHT22;18152;49.986;8.646;2022-07-22T10:45:51;27.00;94.90
31542;DHT22;18152;49.986;8.646;2022-07-22T10:48:25;26.90;98.60
31542;DHT22;18152;49.986;8.646;2022-07-22T10:51:04;26.90;86.50
31542;DHT22;18152;49.986;8.646;2022-07-22T10:53:45;27.20;87.30
31542;DHT22;18152;49.986;8.646;2022-07-22T10:56:31;27.30;92.10
31542;DHT22;18152;49.986;8.646;2022-07-22T11:01:37;27.40;98.40
31542;DHT22;18152;49.986;8.646;2022-07-22T11:04:10;27.40;95.80
31542;DHT22;18152;49.986;8.646;2022-07-22T11:06:36;27.10;94.90
31542;DHT22;18152;49.986;8.646;2022-07-22T11:09:08;26.90;97.80
31542;DHT22;18152;49.986;8.646;2022-07-22T11:11:35;27.20;88.50
31542;DHT22;18152;49.986;8.646;2022-07-22T11:14:01;27.50;95.70
31542;DHT22;18152;49.986;8.646;2022-07-22T11:16:27;27.40;91.70
31542;DHT22;18152;49.986;8.646;2022-07-22T11:19:01;27.60;89.50
31542;DHT22;18152;49.986;8.646;2022-07-22T11:21:32;28.00;85.70
31542;DHT22;18152;49.986;8.646;2022-07-22T11:24:02;28.00;90.80
31542;DHT22;18152;49.986;8.646;2022-07-22T11:26:47;28.20;90.60
31542;DHT22;18152;49.986;8.646;2022-07-22T11:29:33;28.30;92.30
31542;DHT22;18152;49.986;8.646;2022-07-22T11:32:00;28.10;83.80
31542;DHT22;18152;49.986;8.646;2022-07-22T11:34:26;28.20;79.40
31542;DHT22;18152;49.986;8.646;2022-07-22T11:36:53;28.00;74.40
31542;DHT22;18152;49.986;8.646;2022-07-22T11:39:25;27.90;79.60
31542;DHT22;18152;49.986;8.646;2022-07-22T11:41:52;28.00;70.90
31542;DHT22;18152;49.986;8.646;2022-07-22T11:44:20;27.90;70.00
31542;DHT22;18152;49.986;8.646;2022-07-22T11:46:46;27.90;73.80
31542;DHT22;18152;49.986;8.646;2022-07-22T11:49:14;27.90;69.50
31542;DHT22;18152;49.986;8.646;2022-07-22T11:51:41;27.70;79.40
31542;DHT22;18152;49.986;8.646;2022-07-22T11:54:07;27.90;76.60
31542;DHT22;18152;49.986;8.646;2022-07-22T11:56:33;28.00;81.40
31542;DHT22;18152;49.986;8.646;2022-07-22T11:58:59;28.20;77.70
31542;DHT22;18152;49.986;8.646;2022-07-22T12:01:32;28.20;79.40
31542;DHT22;18152;49.986;8.646;2022-07-22T12:04:04;28.40;85.10
31542;DHT22;18152;49.986;8.646;2022-07-22T12:06:31;28.60;87.30
31542;DHT22;18152;49.986;8.646;2022-07-22T12:09:12;28.70;78.70
31542;DHT22;18152;49.986;8.646;2022-07-22T12:11:44;28.80;91.20
31542;DHT22;18152;49.986;8.646;2022-07-22T12:14:15;28.60;84.30
31542;DHT22;18152;49.986;8.646;2022-07-22T12:16:43;28.40;72.60
31542;DHT22;18152;49.986;8.646;2022-07-22T12:19:11;28.20;82.70
31542;DHT22;18152;49.986;8.646;2022-07-22T12:21:54;28.10;92.10
31542;DHT22;18152;49.986;8.646;2022-07-22T12:24:33;28.00;77.30
31542;DHT22;18152;49.986;8.646;2022-07-22T12:27:05;28.20;74.50
31542;DHT22;18152;49.986;8.646;2022-07-22T12:29:48;28.10;70.70
31542;DHT22;18152;49.986;8.646;2022-07-22T12:32:24;28.20;72.70
31542;DHT22;18152;49.986;8.646;2022-07-22T12:37:41;28.50;75.10
31542;DHT22;18152;49.986;8.646;2022-07-22T12:42:42;28.70;78.10
31542;DHT22;18152;49.986;8.646;2022-07-22T12:47:50;28.60;70.30
31542;DHT22;18152;49.986;8.646;2022-07-22T12:50:19;28.80;76.20
31542;DHT22;18152;49.986;8.646;2022-07-22T12:52:44;28.90;90.50
31542;DHT22;18152;49.986;8.646;2022-07-22T12:55:10;28.70;76.20
31542;DHT22;18152;49.986;8.646;2022-07-22T12:57:36;28.90;75.70
31542;DHT22;18152;49.986;8.646;2022-07-22T13:00:02;28.80;68.40
31542;DHT22;18152;49.986;8.646;2022-07-22T13:02:27;28.50;71.40
31542;DHT22;18152;49.986;8.646;2022-07-22T13:04:53;28.40;65.10
31542;DHT22;18152;49.986;8.646;2022-07-22T13:07:18;28.40;72.00
31542;DHT22;18152;49.986;8.646;2022-07-22T13:09:44;28.50;65.60
31542;DHT22;18152;49.986;8.646;2022-07-22T13:12:09;28.40;66.60
31542;DHT22;18152;49.986;8.646;2022-07-22T13:14:35;28.30;69.50
31542;DHT22;18152;49.986;8.646;2022-07-22T13:17:01;28.30;70.00
31542;DHT22;18152;49.986;8.646;2022-07-22T13:19:26;28.20;67.60
31542;DHT22;18152;49.986;8.646;2022-07-22T13:21:52;28.30;70.40
31542;DHT22;18152;49.986;8.646;2022-07-22T13:24:17;28.50;70.60
31542;DHT22;18152;49.986;8.646;2022-07-22T13:26:43;28.70;76.10
31542;DHT22;18152;49.986;8.646;2022-07-22T13:29:08;28.80;79.00
31542;DHT22;18152;49.986;8.646;2022-07-22T13:31:35;28.60;66.80
31542;DHT22;18152;49.986;8.646;2022-07-22T13:34:01;28.70;67.00
31542;DHT22;18152;49.986;8.646;2022-07-22T13:36:27;28.80;66.60
31542;DHT22;18152;49.986;8.646;2022-07-22T13:38:53;28.60;69.40
31542;DHT22;18152;49.986;8.646;2022-07-22T13:41:19;28.70;66.00
31542;DHT22;18152;49.986;8.646;2022-07-22T13:43:45;28.60;68.20
31542;DHT22;18152;49.986;8.646;2022-07-22T13:46:11;28.60;67.10
31542;DHT22;18152;49.986;8.646;2022-07-22T13:48:37;28.50;64.70
31542;DHT22;18152;49.986;8.646;2022-07-22T13:51:03;28.50;69.60
31542;DHT22;18152;49.986;8.646;2022-07-22T13:53:30;28.30;72.90
31542;DHT22;18152;49.986;8.646;2022-07-22T13:55:56;28.30;76.00
31542;DHT22;18152;49.986;8.646;2022-07-22T13:58:21;28.10;84.40
31542;DHT22;18152;49.986;8.646;2022-07-22T14:00:47;28.00;80.20
31542;DHT22;18152;49.986;8.646;2022-07-22T14:03:12;28.20;76.50
31542;DHT22;18152;49.986;8.646;2022-07-22T14:05:38;28.20;75.20
31542;DHT22;18152;49.986;8.646;2022-07-22T14:08:04;28.40;66.70
31542;DHT22;18152;49.986;8.646;2022-07-22T14:10:30;28.50;67.50
31542;DHT22;18152;49.986;8.646;2022-07-22T14:12:55;28.50;69.70
31542;DHT22;18152;49.986;8.646;2022-07-22T14:15:21;28.60;71.70
31542;DHT22;18152;49.986;8.646;2022-07-22T14:17:46;28.50;65.00
31542;DHT22;18152;49.986;8.646;2022-07-22T14:20:12;28.50;63.90
31542;DHT22;18152;49.986;8.646;2022-07-22T14:22:38;28.30;64.30
31542;DHT22;18152;49.986;8.646;2022-07-22T14:25:04;28.20;67.90
31542;DHT22;18152;49.986;8.646;2022-07-22T14:27:30;28.10;80.50
31542;DHT22;18152;49.986;8.646;2022-07-22T14:29:55;28.00;72.20
31542;DHT22;18152;49.986;8.646;2022-07-22T14:32:21;28.30;66.20
31542;DHT22;18152;49.986;8.646;2022-07-22T14:34:47;28.20;72.50
31542;DHT22;18152;49.986;8.646;2022-07-22T14:37:12;28.10;68.80
31542;DHT22;18152;49.986;8.646;2022-07-22T14:39:38;28.20;69.40
31542;DHT22;18152;49.986;8.646;2022-07-22T14:42:04;28.40;67.50
31542;DHT22;18152;49.986;8.646;2022-07-22T14:44:29;28.50;65.00
31542;DHT22;18152;49.986;8.646;2022-07-22T14:46:56;28.50;66.10
31542;DHT22;18152;49.986;8.646;2022-07-22T14:49:22;28.30;65.40
31542;DHT22;18152;49.986;8.646;2022-07-22T14:51:47;28.30;68.90
31542;DHT22;18152;49.986;8.646;2022-07-22T14:54:13;28.30;65.50
31542;DHT22;18152;49.986;8.646;2022-07-22T14:56:39;28.30;65.40
31542;DHT22;18152;49.986;8.646;2022-07-22T14:59:05;28.40;64.10
31542;DHT22;18152;49.986;8.646;2022-07-22T15:01:31;28.30;65.90
31542;DHT22;18152;49.986;8.646;2022-07-22T15:03:56;28.20;64.70
31542;DHT22;18152;49.986;8.646;2022-07-22T15:06:22;28.00;66.20
31542;DHT22;18152;49.986;8.646;2022-07-22T15:08:47;28.20;63.90
31542;DHT22;18152;49.986;8.646;2022-07-22T15:11:13;28.30;66.90
31542;DHT22;18152;49.986;8.646;2022-07-22T15:13:39;28.20;67.10
31542;DHT22;18152;49.986;8.646;2022-07-22T15:16:05;28.00;74.80
31542;DHT22;18152;49.986;8.646;2022-07-22T15:18:31;27.60;78.00
31542;DHT22;18152;49.986;8.646;2022-07-22T15:20:56;27.30;81.50
31542;DHT22;18152;49.986;8.646;2022-07-22T15:23:23;27.10;82.80
31542;DHT22;18152;49.986;8.646;2022-07-22T15:25:56;26.90;84.40
31542;DHT22;18152;49.986;8.646;2022-07-22T15:28:22;26.70;89.90
31542;DHT22;18152;49.986;8.646;2022-07-22T15:30:48;26.60;86.20
31542;DHT22;18152;49.986;8.646;2022-07-22T15:33:13;26.80;75.60
31542;DHT22;18152;49.986;8.646;2022-07-22T15:35:39;26.90;74.70
31542;DHT22;18152;49.986;8.646;2022-07-22T15:38:05;26.70;87.30
31542;DHT22;18152;49.986;8.646;2022-07-22T15:40:30;26.40;86.80
31542;DHT22;18152;49.986;8.646;2022-07-22T15:42:56;26.60;81.50
31542;DHT22;18152;49.986;8.646;2022-07-22T15:45:22;26.30;85.10
31542;DHT22;18152;49.986;8.646;2022-07-22T15:47:48;26.20;86.00
31542;DHT22;18152;49.986;8.646;2022-07-22T15:50:14;26.50;71.70
31542;DHT22;18152;49.986;8.646;2022-07-22T15:52:40;26.80;72.80